Time;durP1;ratioP1;P1;durP2;ratioP2;P2;SDS_P1;SDS_P2;PMS_P1;PMS_P2;Temp;Humidity;BMP_temperature;BMP_pressure;BME280_temperature;BME280_humidity;BME280_pressure;Samples;Min_cycle;Max_cycle;Signal;HPM_P1;HPM_P2
2023/12/31 00:01:33;;;;;;;1999.90;999.90;;;;;;;4.64;84.04;96702.38;5073032;28;20083;-65
2023/12/31 00:04:02;;;;;;;1999.90;999.90;;;;;;;4.66;83.50;96704.06;5073250;28;20080;-66
2023/12/31 00:06:29;;;;;;;1999.90;999.90;;;;;;;4.71;83.15;96693.63;5072931;28;20067;-65
2023/12/31 00:08:56;;;;;;;1999.90;999.90;;;;;;;4.74;82.93;96697.91;5072847;28;20056;-63
2023/12/31 00:11:24;;;;;;;1999.90;999.90;;;;;;;4.76;82.49;96701.34;5072903;28;20048;-66
2023/12/31 00:13:52;;;;;;;1999.90;999.90;;;;;;;4.75;82.62;96702.22;5072796;28;20499;-68
2023/12/31 00:16:20;;;;;;;1999.90;999.90;;;;;;;4.70;82.66;96697.13;5072998;28;20051;-66
2023/12/31 00:18:49;;;;;;;1999.90;999.90;;;;;;;4.74;82.14;96697.91;5072899;28;20409;-68
2023/12/31 00:21:18;;;;;;;1999.90;999.90;;;;;;;4.62;82.44;96697.19;5073073;28;20123;-66
2023/12/31 00:23:45;;;;;;;1999.90;999.90;;;;;;;4.53;82.71;96698.16;5072838;28;20045;-65
2023/12/31 00:26:12;;;;;;;1999.90;999.90;;;;;;;4.51;82.39;96696.44;5072906;28;20530;-66
2023/12/31 00:28:39;;;;;;;1999.90;999.90;;;;;;;4.53;82.27;96699.88;5072770;28;20143;-67
2023/12/31 00:31:06;;;;;;;1999.90;999.90;;;;;;;4.55;82.42;96701.56;5073012;28;20052;-64
2023/12/31 00:33:36;;;;;;;1999.90;999.90;;;;;;;4.50;82.22;96697.31;5072961;28;20439;-66
2023/12/31 00:36:03;;;;;;;1999.90;999.90;;;;;;;4.48;82.11;96699.94;5072666;28;20057;-64
2023/12/31 00:38:32;;;;;;;1999.90;999.90;;;;;;;4.38;82.23;96700.91;5072570;28;20061;-66
2023/12/31 00:40:59;;;;;;;1999.90;999.90;;;;;;;4.39;82.20;96700.03;5076419;28;20046;-64
2023/12/31 00:43:26;;;;;;;1999.90;999.90;;;;;;;4.37;81.73;96705.22;5076241;28;20041;-64
2023/12/31 00:45:54;;;;;;;1999.90;999.90;;;;;;;4.30;82.11;96699.25;5076626;28;20053;-63
2023/12/31 00:48:21;;;;;;;1999.90;999.90;;;;;;;4.34;82.08;96707.00;5076564;28;20067;-66
2023/12/31 00:50:49;;;;;;;1999.90;999.90;;;;;;;4.32;81.86;96713.91;5076243;28;20095;-68
2023/12/31 00:53:16;;;;;;;1999.90;999.90;;;;;;;4.32;81.68;96711.34;5076106;28;20044;-67
2023/12/31 00:55:44;;;;;;;1999.90;999.90;;;;;;;4.33;81.57;96707.88;5076100;28;20051;-64
2023/12/31 00:58:12;;;;;;;1999.90;999.90;;;;;;;4.32;81.22;96716.50;5076189;28;20102;-65
2023/12/31 01:00:39;;;;;;;1999.90;999.90;;;;;;;4.26;81.35;96715.72;5076013;28;20056;-66
2023/12/31 01:03:06;;;;;;;1999.90;999.90;;;;;;;4.16;81.31;96704.56;5075929;28;20497;-69
2023/12/31 01:05:33;;;;;;;1999.90;999.90;;;;;;;4.11;80.85;96705.50;5075885;28;20455;-67
2023/12/31 01:08:00;;;;;;;1999.90;999.90;;;;;;;3.97;81.15;96713.41;5075834;28;20454;-64
2023/12/31 01:10:27;;;;;;;1999.90;999.90;;;;;;;3.86;81.62;96709.19;5075979;28;20054;-66
2023/12/31 01:12:55;;;;;;;1999.90;999.90;;;;;;;3.84;82.10;96707.47;5075781;28;20048;-66
2023/12/31 01:15:23;;;;;;;1999.90;999.90;;;;;;;3.87;82.07;96710.03;5075831;28;20147;-67
2023/12/31 01:17:50;;;;;;;1999.90;999.90;;;;;;;3.86;82.29;96705.72;5075756;28;20506;-62
2023/12/31 01:20:17;;;;;;;1999.90;999.90;;;;;;;3.91;82.01;96709.13;5075700;28;20570;-64
2023/12/31 01:22:44;;;;;;;1999.90;999.90;;;;;;;3.96;81.95;96701.31;5075849;28;20048;-64
2023/12/31 01:25:12;;;;;;;1999.90;999.90;;;;;;;3.99;81.58;96698.69;5075754;28;20556;-65
2023/12/31 01:27:39;;;;;;;1999.90;999.90;;;;;;;4.00;81.34;96703.03;5075837;28;20048;-66
2023/12/31 01:30:10;;;;;;;1999.90;999.90;;;;;;;4.06;81.27;96700.34;5075468;28;20084;-68
2023/12/31 01:32:37;;;;;;;1999.90;999.90;;;;;;;4.10;81.07;96702.06;5075599;28;20048;-65
2023/12/31 01:35:06;;;;;;;1999.90;999.90;;;;;;;4.10;80.83;96704.66;5075493;28;20056;-67
2023/12/31 01:37:33;;;;;;;1999.90;999.90;;;;;;;4.09;80.56;96696.91;5075352;28;20071;-65
2023/12/31 01:40:00;;;;;;;1999.90;999.90;;;;;;;4.05;79.95;96706.41;5075520;28;20383;-65
2023/12/31 01:42:27;;;;;;;1999.90;999.90;;;;;;;3.93;80.07;96704.81;5075182;28;20048;-67
2023/12/31 01:44:54;;;;;;;1999.90;999.90;;;;;;;3.85;80.22;96704.84;5075381;28;20048;-65
2023/12/31 01:47:23;;;;;;;1999.90;999.90;;;;;;;3.81;80.30;96697.13;5075383;28;20132;-67
2023/12/31 01:49:52;;;;;;;1999.90;999.90;;;;;;;3.69;80.78;96701.53;5075398;28;20041;-67
2023/12/31 01:52:19;;;;;;;1999.90;999.90;;;;;;;3.62;81.69;96702.47;5075242;28;20105;-65
2023/12/31 01:54:46;;;;;;;1999.90;999.90;;;;;;;3.46;81.85;96694.81;5075182;28;20048;-68
2023/12/31 01:57:15;;;;;;;1999.90;999.90;;;;;;;3.39;81.97;96700.91;5075148;28;20091;-67
2023/12/31 01:59:43;;;;;;;1999.90;999.90;;;;;;;3.41;81.89;96691.41;5075194;28;20553;-68
2023/12/31 02:02:10;;;;;;;1999.90;999.90;;;;;;;3.40;81.09;96692.25;5074867;28;20543;-66
2023/12/31 02:04:39;;;;;;;1999.90;999.90;;;;;;;3.40;81.30;96689.66;5075034;28;20080;-64
2023/12/31 02:07:06;;;;;;;1999.90;999.90;;;;;;;3.39;81.26;96696.59;5075117;28;20059;-64
2023/12/31 02:09:33;;;;;;;1999.90;999.90;;;;;;;3.41;81.16;96694.00;5074867;28;20169;-65
2023/12/31 02:12:00;;;;;;;1999.90;999.90;;;;;;;3.33;81.18;96691.47;5074761;28;20139;-66
2023/12/31 02:14:27;;;;;;;1999.90;999.90;;;;;;;3.38;81.59;96697.47;5074954;28;20456;-69
2023/12/31 02:16:54;;;;;;;1999.90;999.90;;;;;;;3.45;81.18;96693.09;5074686;28;20072;-65
2023/12/31 02:19:21;;;;;;;1999.90;999.90;;;;;;;3.49;81.01;96692.19;5074575;28;20131;-64
2023/12/31 02:21:50;;;;;;;1999.90;999.90;;;;;;;3.53;80.66;96688.72;5074612;28;20044;-67
2023/12/31 02:24:20;;;;;;;1999.90;999.90;;;;;;;3.44;80.79;96686.22;5074783;28;20136;-66
2023/12/31 02:26:49;;;;;;;1999.90;999.90;;;;;;;3.40;80.61;96685.38;5074537;28;20074;-67
2023/12/31 02:29:16;;;;;;;1999.90;999.90;;;;;;;3.36;80.66;96680.22;5074467;28;20075;-68
2023/12/31 02:31:43;;;;;;;1999.90;999.90;;;;;;;3.28;80.55;96688.91;5074544;28;20048;-66
2023/12/31 02:34:11;;;;;;;1999.90;999.90;;;;;;;3.18;80.54;96683.78;5074263;28;20052;-64
2023/12/31 02:36:38;;;;;;;1999.90;999.90;;;;;;;3.12;81.50;96680.38;5074276;28;20052;-67
2023/12/31 02:39:05;;;;;;;1999.90;999.90;;;;;;;3.13;81.60;96682.09;5074200;28;20449;-67
2023/12/31 02:41:32;;;;;;;1999.90;999.90;;;;;;;3.15;82.25;96685.53;5074041;28;20136;-68
2023/12/31 02:44:00;;;;;;;1999.90;999.90;;;;;;;3.19;81.84;96686.38;5073992;28;20391;-68
2023/12/31 02:46:27;;;;;;;1999.90;999.90;;;;;;;3.20;81.53;96682.06;5074319;28;20158;-69
2023/12/31 02:48:54;;;;;;;1999.90;999.90;;;;;;;3.22;81.23;96688.09;5073969;28;20151;-68
2023/12/31 02:51:22;;;;;;;1999.90;999.90;;;;;;;3.23;81.07;96682.91;5073945;28;20041;-66
2023/12/31 02:53:49;;;;;;;1999.90;999.90;;;;;;;3.19;81.30;96682.94;5073893;28;20084;-66
2023/12/31 02:56:16;;;;;;;1999.90;999.90;;;;;;;3.13;81.64;96689.84;5073672;28;20402;-69
2023/12/31 02:58:43;;;;;;;1999.90;999.90;;;;;;;3.12;81.83;96687.28;5073699;28;20051;-66
2023/12/31 03:01:12;;;;;;;1999.90;999.90;;;;;;;3.11;81.73;96683.84;5073683;28;20090;-64
2023/12/31 03:03:39;;;;;;;1999.90;999.90;;;;;;;3.10;81.86;96691.63;5073330;28;20094;-67
2023/12/31 03:06:06;;;;;;;1999.90;999.90;;;;;;;2.94;82.16;96691.69;5073616;28;20095;-69
2023/12/31 03:08:33;;;;;;;1999.90;999.90;;;;;;;2.88;82.22;96686.53;5073786;28;20102;-64
2023/12/31 03:11:01;;;;;;;1999.90;999.90;;;;;;;2.85;82.08;96689.13;5073583;28;20050;-68
2023/12/31 03:13:28;;;;;;;1999.90;999.90;;;;;;;2.84;81.84;96690.00;5073473;28;20084;-64
2023/12/31 03:15:55;;;;;;;1999.90;999.90;;;;;;;2.76;81.93;96690.03;5073349;28;20045;-65
2023/12/31 03:18:23;;;;;;;1999.90;999.90;;;;;;;2.70;82.38;96692.66;5073486;28;20076;-66
2023/12/31 03:20:50;;;;;;;1999.90;999.90;;;;;;;2.61;83.18;96693.53;5073231;28;20498;-68
2023/12/31 03:23:17;;;;;;;1999.90;999.90;;;;;;;2.58;83.29;96693.56;5073377;28;20044;-68
2023/12/31 03:25:44;;;;;;;1999.90;999.90;;;;;;;2.51;84.06;96688.44;5073392;28;20067;-67
2023/12/31 03:28:11;;;;;;;1999.90;999.90;;;;;;;2.48;83.92;96691.03;5073349;28;20094;-66
2023/12/31 03:30:38;;;;;;;1999.90;999.90;;;;;;;2.50;83.66;96691.88;5073494;28;20525;-68
2023/12/31 03:33:05;;;;;;;1999.90;999.90;;;;;;;2.52;83.30;96689.28;5073114;28;20052;-64
2023/12/31 03:35:34;;;;;;;1999.90;999.90;;;;;;;2.50;83.33;96694.44;5073189;28;20087;-66
2023/12/31 03:38:00;;;;;;;1999.90;999.90;;;;;;;2.53;82.98;96702.19;5073228;28;20045;-68
2023/12/31 03:40:27;;;;;;;1999.90;999.90;;;;;;;2.52;83.72;96702.19;5073341;28;20122;-66
2023/12/31 03:42:54;;;;;;;1999.90;999.90;;;;;;;2.60;84.43;96702.16;5073513;28;20737;-65
2023/12/31 03:45:21;;;;;;;1999.90;999.90;;;;;;;2.62;84.24;96701.28;5073169;28;20047;-66
2023/12/31 03:47:48;;;;;;;1999.90;999.90;;;;;;;2.66;82.97;96712.50;5073183;28;20056;-66
2023/12/31 03:50:17;;;;;;;1999.90;999.90;;;;;;;2.68;82.77;96717.66;5073160;28;20498;-65
2023/12/31 03:52:46;;;;;;;1999.90;999.90;;;;;;;2.60;83.09;96715.09;5072980;28;20055;-68
2023/12/31 03:55:13;;;;;;;1999.90;999.90;;;;;;;2.54;83.43;96715.97;5073095;28;20044;-68
2023/12/31 03:57:40;;;;;;;1999.90;999.90;;;;;;;2.45;83.63;96716.88;5073027;28;20163;-67
2023/12/31 04:00:09;;;;;;;1999.90;999.90;;;;;;;2.36;84.06;96720.34;5072927;28;20110;-67
2023/12/31 04:02:36;;;;;;;1999.90;999.90;;;;;;;2.35;83.92;96723.75;5073325;28;20162;-65
2023/12/31 04:05:04;;;;;;;1999.90;999.90;;;;;;;2.29;84.03;96721.22;5072916;28;20067;-66
2023/12/31 04:07:32;;;;;;;1999.90;999.90;;;;;;;2.30;83.65;96720.34;5073384;28;20053;-66
2023/12/31 04:10:01;;;;;;;1999.90;999.90;;;;;;;2.35;83.49;96726.34;5072807;28;20505;-68
2023/12/31 04:12:28;;;;;;;1999.90;999.90;;;;;;;2.39;84.60;96719.44;5072977;28;20162;-64
2023/12/31 04:14:55;;;;;;;1999.90;999.90;;;;;;;2.43;84.66;96721.16;5075138;28;20083;-71
2023/12/31 04:17:22;;;;;;;1999.90;999.90;;;;;;;2.39;84.67;96724.63;5076860;28;20056;-67
2023/12/31 04:19:50;;;;;;;1999.90;999.90;;;;;;;2.35;85.15;96722.91;5076649;28;20048;-66
2023/12/31 04:22:17;;;;;;;1999.90;999.90;;;;;;;2.39;85.89;96722.03;5077070;28;20057;-65
2023/12/31 04:24:44;;;;;;;1999.90;999.90;;;;;;;2.35;85.84;96720.34;5076801;28;20508;-66
2023/12/31 04:27:12;;;;;;;1999.90;999.90;;;;;;;2.37;85.16;96729.78;5076919;28;20087;-66
2023/12/31 04:29:39;;;;;;;1999.90;999.90;;;;;;;2.32;84.88;96730.66;5076651;28;20098;-67
2023/12/31 04:32:07;;;;;;;1999.90;999.90;;;;;;;2.34;84.06;96729.78;5076761;28;20048;-65
2023/12/31 04:34:34;;;;;;;1999.90;999.90;;;;;;;2.30;84.00;96730.66;5076750;28;20433;-66
2023/12/31 04:37:01;;;;;;;1999.90;999.90;;;;;;;2.26;84.29;96737.53;5076505;28;20135;-65
2023/12/31 04:39:28;;;;;;;1999.90;999.90;;;;;;;2.23;85.28;96736.72;5076707;28;20440;-65
2023/12/31 04:41:55;;;;;;;1999.90;999.90;;;;;;;2.22;85.83;96743.59;5076477;28;20503;-64
2023/12/31 04:44:24;;;;;;;1999.90;999.90;;;;;;;2.18;86.24;96743.59;5076336;28;20051;-64
2023/12/31 04:46:51;;;;;;;1999.90;999.90;;;;;;;2.21;86.03;96734.13;5076438;28;20053;-65
2023/12/31 04:49:17;;;;;;;1999.90;999.90;;;;;;;2.18;84.95;96735.84;5076250;28;20048;-65
2023/12/31 04:51:44;;;;;;;1999.90;999.90;;;;;;;2.15;84.42;96731.56;5076186;28;20508;-67
2023/12/31 04:54:11;;;;;;;1999.90;999.90;;;;;;;2.06;85.29;96740.16;5076350;28;20554;-65
2023/12/31 04:56:39;;;;;;;1999.90;999.90;;;;;;;2.13;85.41;96733.25;5076067;28;20091;-67
2023/12/31 04:59:06;;;;;;;1999.90;999.90;;;;;;;2.17;85.10;96728.97;5076179;28;20556;-64
2023/12/31 05:01:34;;;;;;;1999.90;999.90;;;;;;;2.07;84.46;96731.56;5076406;28;20051;-67
2023/12/31 05:04:01;;;;;;;1999.90;999.90;;;;;;;2.02;84.61;96743.63;5076338;28;20049;-67
2023/12/31 05:06:29;;;;;;;1999.90;999.90;;;;;;;2.05;85.04;96741.03;5076177;28;20064;-69
2023/12/31 05:08:56;;;;;;;1999.90;999.90;;;;;;;2.04;85.38;96743.63;5075932;28;20049;-66
2023/12/31 05:11:25;;;;;;;1999.90;999.90;;;;;;;1.96;85.50;96738.47;5075860;28;20513;-68
2023/12/31 05:13:53;;;;;;;1999.90;999.90;;;;;;;1.95;86.16;96735.00;5075831;28;20040;-68
2023/12/31 05:16:20;;;;;;;1999.90;999.90;;;;;;;1.98;85.90;96740.16;5075738;28;20040;-65
2023/12/31 05:18:50;;;;;;;1999.90;999.90;;;;;;;2.02;86.12;96734.13;5075735;28;20055;-67
2023/12/31 05:21:17;;;;;;;1999.90;999.90;;;;;;;2.02;85.76;96741.03;5074552;28;20052;-66
2023/12/31 05:23:45;;;;;;;1999.90;999.90;;;;;;;2.05;86.11;96742.75;5074503;28;20044;-65
2023/12/31 05:26:12;;;;;;;1999.90;999.90;;;;;;;2.10;85.69;96739.28;5074023;28;20056;-64
2023/12/31 05:28:39;;;;;;;1999.90;999.90;;;;;;;2.08;85.58;96738.44;5074521;28;20048;-68
2023/12/31 05:31:06;;;;;;;1999.90;999.90;;;;;;;2.08;86.05;96742.75;5074986;28;20044;-65
2023/12/31 05:33:33;;;;;;;1999.90;999.90;;;;;;;2.13;86.93;96728.09;5074471;28;20091;-65
2023/12/31 05:36:02;;;;;;;1999.90;999.90;;;;;;;2.13;86.51;96728.09;5074453;28;20596;-66
2023/12/31 05:38:29;;;;;;;1999.90;999.90;;;;;;;2.13;86.07;96735.84;5074268;28;20051;-64
2023/12/31 05:40:56;;;;;;;1999.90;999.90;;;;;;;2.05;86.17;96735.88;5074115;28;20143;-68
2023/12/31 05:43:23;;;;;;;1999.90;999.90;;;;;;;2.07;86.14;96730.69;5074327;28;20047;-65
2023/12/31 05:45:51;;;;;;;1999.90;999.90;;;;;;;2.06;85.94;96737.59;5074256;28;20048;-64
2023/12/31 05:48:18;;;;;;;1999.90;999.90;;;;;;;2.07;85.94;96739.28;5074137;28;20079;-68
2023/12/31 05:50:46;;;;;;;1999.90;999.90;;;;;;;2.10;86.53;96735.84;5074274;28;20041;-67
2023/12/31 05:53:15;;;;;;;1999.90;999.90;;;;;;;2.06;86.18;96736.72;5074281;28;20071;-66
2023/12/31 05:55:43;;;;;;;1999.90;999.90;;;;;;;2.04;86.24;96739.28;5074072;28;20548;-65
2023/12/31 05:58:13;;;;;;;1999.90;999.90;;;;;;;2.02;86.55;96738.47;5074015;28;20080;-66
2023/12/31 06:00:41;;;;;;;1999.90;999.90;;;;;;;2.04;86.93;96741.03;5074139;28;20048;-66
2023/12/31 06:03:08;;;;;;;1999.90;999.90;;;;;;;2.07;86.41;96741.88;5073961;28;20049;-66
2023/12/31 06:05:35;;;;;;;1999.90;999.90;;;;;;;2.04;86.90;96743.63;5073817;28;20459;-68
2023/12/31 06:08:02;;;;;;;1999.90;999.90;;;;;;;1.97;87.56;96738.47;5074085;28;20054;-65
2023/12/31 06:10:30;;;;;;;1999.90;999.90;;;;;;;2.02;87.79;96744.47;5073660;28;20520;-64
2023/12/31 06:12:58;;;;;;;1999.90;999.90;;;;;;;2.09;87.28;96744.47;5073810;28;20067;-66
2023/12/31 06:15:25;;;;;;;1999.90;999.90;;;;;;;2.14;87.19;96748.75;5073991;28;20045;-69
2023/12/31 06:17:52;;;;;;;1999.90;999.90;;;;;;;2.18;87.17;96753.91;5073573;28;20055;-65
2023/12/31 06:20:19;;;;;;;1999.90;999.90;;;;;;;2.25;87.77;96747.88;5028315;28;1298081;-66
2023/12/31 06:22:47;;;;;;;1999.90;999.90;;;;;;;2.33;88.30;96753.91;5074818;28;20055;-67
2023/12/31 06:25:14;;;;;;;1999.90;999.90;;;;;;;2.35;88.34;96744.41;5074705;28;20052;-66
2023/12/31 06:27:42;;;;;;;1999.90;999.90;;;;;;;2.43;89.14;96743.53;5074784;28;20051;-67
2023/12/31 06:30:10;;;;;;;1999.90;999.90;;;;;;;2.45;89.15;96747.84;5074269;28;20490;-65
2023/12/31 06:32:38;;;;;;;1999.90;999.90;;;;;;;2.57;89.10;96746.97;5074226;28;20080;-65
2023/12/31 06:35:09;;;;;;;1999.90;999.90;;;;;;;2.65;88.89;96739.19;5074346;28;20571;-68
2023/12/31 06:37:36;;;;;;;1999.90;999.90;;;;;;;2.76;89.03;96752.94;5073218;28;20398;-64
2023/12/31 06:40:05;;;;;;;1999.90;999.90;;;;;;;2.84;89.30;96755.50;5074192;28;20053;-66
2023/12/31 06:42:33;;;;;;;1999.90;999.90;;;;;;;2.96;89.20;96761.47;5074179;28;20098;-68
2023/12/31 06:45:01;;;;;;;1999.90;999.90;;;;;;;3.03;89.52;96758.84;5074136;28;20095;-67
2023/12/31 06:47:29;;;;;;;1999.90;999.90;;;;;;;3.17;89.47;96760.50;5074054;28;20095;-66
2023/12/31 06:49:56;;;;;;;1999.90;999.90;;;;;;;3.26;89.13;96760.47;5073945;28;20086;-68
2023/12/31 06:52:25;;;;;;;1999.90;999.90;;;;;;;3.36;88.79;96763.84;5073819;28;20048;-65
2023/12/31 06:54:52;;;;;;;1999.90;999.90;;;;;;;3.46;88.40;96772.41;5073856;28;20051;-64
2023/12/31 06:57:21;;;;;;;1999.90;999.90;;;;;;;3.53;88.12;96775.84;5073786;28;20459;-64
2023/12/31 06:59:49;;;;;;;1999.90;999.90;;;;;;;3.61;87.85;96774.03;5073432;28;20067;-66
2023/12/31 07:02:19;;;;;;;1999.90;999.90;;;;;;;3.70;87.69;96772.28;5073827;28;20482;-64
2023/12/31 07:04:47;;;;;;;1999.90;999.90;;;;;;;3.73;87.33;96775.69;5073689;28;20099;-65
2023/12/31 07:07:19;;;;;;;1999.90;999.90;;;;;;;3.84;87.56;96788.56;5073877;28;20056;-68
2023/12/31 07:09:46;;;;;;;1999.90;999.90;;;;;;;3.92;86.95;96789.34;5073646;28;20106;-67
2023/12/31 07:12:14;;;;;;;1999.90;999.90;;;;;;;3.97;87.03;96791.91;5073811;28;20452;-67
2023/12/31 07:14:41;;;;;;;1999.90;999.90;;;;;;;4.07;86.60;96791.84;5073547;28;20049;-67
2023/12/31 07:17:12;;;;;;;1999.90;999.90;;;;;;;4.15;86.60;96790.91;5073672;28;20110;-66
2023/12/31 07:19:43;;;;;;;1999.90;999.90;;;;;;;4.18;86.42;96795.19;5073164;28;20047;-65
2023/12/31 07:22:15;;;;;;;1999.90;999.90;;;;;;;4.29;86.50;96805.47;5072979;28;20060;-64
2023/12/31 07:24:42;;;;;;;1999.90;999.90;;;;;;;4.36;86.15;96803.69;5073384;28;20058;-66
2023/12/31 07:27:11;;;;;;;1999.90;999.90;;;;;;;4.43;85.41;96802.78;5073405;28;20555;-67
2023/12/31 07:29:38;;;;;;;1999.90;999.90;;;;;;;4.54;84.90;96802.66;5073278;28;20094;-64
2023/12/31 07:32:06;;;;;;;1999.90;999.90;;;;;;;4.68;85.21;96803.38;5073449;28;20076;-68
2023/12/31 07:34:34;;;;;;;1999.90;999.90;;;;;;;4.88;85.37;96799.69;5073310;28;20055;-65
2023/12/31 07:37:02;;;;;;;1999.90;999.90;;;;;;;5.16;85.75;96795.94;5073123;28;20045;-68
2023/12/31 07:39:31;;;;;;;1999.90;999.90;;;;;;;5.48;86.57;96792.06;5073197;28;20048;-66
2023/12/31 07:41:58;;;;;;;1999.90;999.90;;;;;;;5.93;87.53;96794.00;5073079;28;20056;-68
2023/12/31 07:44:26;;;;;;;1999.90;999.90;;;;;;;6.54;85.93;96797.41;5073188;28;20091;-68
2023/12/31 07:46:53;;;;;;;1999.90;999.90;;;;;;;7.02;82.33;96799.13;5073103;28;20127;-66
2023/12/31 07:49:20;;;;;;;1999.90;999.90;;;;;;;7.36;80.40;96801.91;5073141;28;20048;-65
2023/12/31 07:51:49;;;;;;;1999.90;999.90;;;;;;;7.61;78.28;96802.25;5073543;28;20056;-67
2023/12/31 07:54:19;;;;;;;1999.90;999.90;;;;;;;8.07;76.26;96807.31;5073466;28;20055;-68
2023/12/31 07:56:48;;;;;;;1999.90;999.90;;;;;;;8.49;73.77;96811.47;5072874;28;20044;-68
2023/12/31 07:59:16;;;;;;;1999.90;999.90;;;;;;;8.67;72.06;96825.84;5073058;28;20210;-65
2023/12/31 08:01:44;;;;;;;1999.90;999.90;;;;;;;8.73;70.77;96827.44;5072958;28;20105;-68
2023/12/31 08:04:11;;;;;;;1999.90;999.90;;;;;;;8.90;70.16;96824.38;5072946;28;20475;-68
2023/12/31 08:06:42;;;;;;;1999.90;999.90;;;;;;;9.08;68.82;96830.00;5072939;28;20076;-68
2023/12/31 08:09:13;;;;;;;1999.90;999.90;;;;;;;9.13;66.77;96833.34;5072912;28;20463;-63
2023/12/31 08:11:43;;;;;;;1999.90;999.90;;;;;;;9.15;66.45;96835.94;5073054;28;20049;-67
2023/12/31 08:14:12;;;;;;;1999.90;999.90;;;;;;;9.20;66.29;96841.84;5072965;28;20045;-66
2023/12/31 08:16:40;;;;;;;1999.90;999.90;;;;;;;9.23;67.50;96831.34;5072791;28;20053;-64
2023/12/31 08:19:09;;;;;;;1999.90;999.90;;;;;;;9.33;67.39;96843.22;5072443;28;20060;-68
2023/12/31 08:21:36;;;;;;;1999.90;999.90;;;;;;;9.57;67.61;96839.97;5072793;28;20051;-69
2023/12/31 08:24:05;;;;;;;1999.90;999.90;;;;;;;9.90;65.89;96846.84;5072785;28;20052;-67
2023/12/31 08:26:32;;;;;;;1999.90;999.90;;;;;;;10.28;64.64;96847.41;5072670;28;20048;-64
2023/12/31 08:29:02;;;;;;;1999.90;999.90;;;;;;;10.53;63.13;96845.81;5072787;28;20048;-65
2023/12/31 08:31:31;;;;;;;1999.90;999.90;;;;;;;10.59;63.42;96848.19;5072817;28;20397;-68
2023/12/31 08:33:59;;;;;;;1999.90;999.90;;;;;;;10.73;62.82;96842.50;5072789;28;20044;-68
2023/12/31 08:36:28;;;;;;;1999.90;999.90;;;;;;;10.76;61.52;96849.38;5072783;28;20049;-67
2023/12/31 08:38:56;;;;;;;1999.90;999.90;;;;;;;10.72;60.21;96849.47;5072657;28;20057;-65
2023/12/31 08:41:23;;;;;;;1999.90;999.90;;;;;;;10.69;60.50;96849.59;5072685;28;20048;-66
2023/12/31 08:44:00;;;;;;;1999.90;999.90;;;;;;;10.75;60.17;96845.94;5072540;28;20476;-68
2023/12/31 08:46:36;;;;;;;1999.90;999.90;;;;;;;10.81;60.06;96852.72;5072676;28;20123;-65
2023/12/31 08:49:08;;;;;;;1999.90;999.90;;;;;;;10.89;59.86;96849.84;5072532;28;20481;-65
2023/12/31 08:51:40;;;;;;;1999.90;999.90;;;;;;;10.94;58.83;96853.13;5072603;28;20553;-64
2023/12/31 08:54:14;;;;;;;1999.90;999.90;;;;;;;11.04;59.01;96838.81;5072424;28;20044;-69
2023/12/31 08:56:41;;;;;;;1999.90;999.90;;;;;;;11.25;58.08;96845.06;5072077;28;20490;-67
2023/12/31 08:59:09;;;;;;;1999.90;999.90;;;;;;;11.56;56.88;96839.63;5072383;28;20044;-66
2023/12/31 09:01:39;;;;;;;1999.90;999.90;;;;;;;12.12;55.51;96842.78;5075287;28;20044;-69
2023/12/31 09:04:10;;;;;;;1999.90;999.90;;;;;;;12.47;53.95;96844.91;5075996;28;20123;-64
2023/12/31 09:06:39;;;;;;;1999.90;999.90;;;;;;;12.97;52.12;96843.69;5076252;28;20075;-65
2023/12/31 09:09:07;;;;;;;1999.90;999.90;;;;;;;13.23;51.49;96841.72;5075853;28;20052;-65
2023/12/31 09:11:38;;;;;;;1999.90;999.90;;;;;;;13.32;50.63;96837.81;5075978;28;20127;-68
2023/12/31 09:14:06;;;;;;;1999.90;999.90;;;;;;;13.18;50.93;96834.97;5075848;28;20044;-65
2023/12/31 09:16:36;;;;;;;1999.90;999.90;;;;;;;13.21;51.16;96826.91;5075850;28;20053;-66
2023/12/31 09:19:09;;;;;;;1999.90;999.90;;;;;;;13.13;50.77;96824.66;5075678;28;20106;-65
2023/12/31 09:21:37;;;;;;;1999.90;999.90;;;;;;;12.95;51.17;96821.91;5075824;28;20102;-68
2023/12/31 09:24:04;;;;;;;1999.90;999.90;;;;;;;12.85;51.59;96818.81;5075830;28;20107;-65
2023/12/31 09:26:32;;;;;;;1999.90;999.90;;;;;;;12.98;51.37;96815.66;5075676;28;20052;-69
2023/12/31 09:29:01;;;;;;;1999.90;999.90;;;;;;;13.03;50.81;96813.69;5075539;28;20444;-67
2023/12/31 09:31:28;;;;;;;1999.90;999.90;;;;;;;12.75;50.81;96810.50;5075593;28;20475;-68
2023/12/31 09:33:57;;;;;;;1999.90;999.90;;;;;;;12.61;52.09;96803.19;5075628;28;20098;-67
2023/12/31 09:36:32;;;;;;;1999.90;999.90;;;;;;;12.55;52.83;96800.81;5075517;28;20045;-64
2023/12/31 09:39:00;;;;;;;1999.90;999.90;;;;;;;12.42;53.67;96800.47;5075403;28;20084;-67
2023/12/31 09:41:30;;;;;;;1999.90;999.90;;;;;;;12.35;53.91;96797.28;5075641;28;20075;-65
2023/12/31 09:44:03;;;;;;;1999.90;999.90;;;;;;;12.29;54.08;96791.41;5075345;28;20055;-69
2023/12/31 09:46:38;;;;;;;1999.90;999.90;;;;;;;12.15;54.20;96787.56;5075235;28;20044;-67
2023/12/31 09:49:08;;;;;;;1999.90;999.90;;;;;;;12.24;54.20;96787.22;5075375;28;20474;-70
2023/12/31 09:51:41;;;;;;;1999.90;999.90;;;;;;;12.36;53.79;96788.47;5075227;28;20044;-63
2023/12/31 09:54:10;;;;;;;1999.90;999.90;;;;;;;12.41;52.77;96785.66;5075180;28;20469;-66
2023/12/31 09:56:39;;;;;;;1999.90;999.90;;;;;;;12.23;53.14;96782.03;5075104;28;20143;-68
2023/12/31 09:59:07;;;;;;;1999.90;999.90;;;;;;;12.26;53.55;96782.75;5074868;28;20490;-67
2023/12/31 10:01:39;;;;;;;1999.90;999.90;;;;;;;12.50;52.86;96769.53;5075035;28;20056;-66
2023/12/31 10:04:11;;;;;;;1999.90;999.90;;;;;;;12.63;51.04;96769.00;5074944;28;20040;-63
2023/12/31 10:06:59;;;;;;;1999.90;999.90;;;;;;;12.74;50.40;96760.69;5074992;28;20131;-63
2023/12/31 10:09:29;;;;;;;1999.90;999.90;;;;;;;12.96;49.85;96760.59;5074778;28;20052;-69
2023/12/31 10:11:59;;;;;;;1999.90;999.90;;;;;;;13.00;49.59;96769.16;5073648;28;20048;-68
2023/12/31 10:14:28;;;;;;;1999.90;999.90;;;;;;;12.92;49.36;96759.03;5074828;28;20509;-68
2023/12/31 10:16:56;;;;;;;1999.90;999.90;;;;;;;12.88;48.17;96758.28;5074609;28;20044;-66
2023/12/31 10:19:26;;;;;;;1999.90;999.90;;;;;;;12.95;48.19;96761.53;5074126;28;20064;-68
2023/12/31 10:21:57;;;;;;;1999.90;999.90;;;;;;;13.02;48.87;96748.97;5074633;28;20437;-68
2023/12/31 10:24:29;;;;;;;1999.90;999.90;;;;;;;13.10;48.78;96752.09;5074495;28;20044;-64
2023/12/31 10:26:57;;;;;;;1999.90;999.90;;;;;;;13.14;47.43;96744.94;5074709;28;20131;-67
2023/12/31 10:29:25;;;;;;;1999.90;999.90;;;;;;;13.26;47.03;96738.28;5074508;28;20044;-68
2023/12/31 10:31:54;;;;;;;1999.90;999.90;;;;;;;13.35;46.96;96737.84;5074333;28;20044;-66
2023/12/31 10:34:22;;;;;;;1999.90;999.90;;;;;;;13.38;46.31;96737.72;5074246;28;20053;-69
2023/12/31 10:36:50;;;;;;;1999.90;999.90;;;;;;;13.36;46.14;96738.69;5074288;28;20047;-64
2023/12/31 10:39:29;;;;;;;1999.90;999.90;;;;;;;13.22;46.56;96734.09;5074230;28;20049;-66
2023/12/31 10:41:58;;;;;;;1999.90;999.90;;;;;;;13.16;45.85;96729.97;5074377;28;20049;-69
2023/12/31 10:44:26;;;;;;;1999.90;999.90;;;;;;;13.15;46.27;96725.63;5073987;28;20437;-64
2023/12/31 10:46:58;;;;;;;1999.90;999.90;;;;;;;13.12;47.23;96728.38;5074106;28;20094;-67
2023/12/31 10:49:28;;;;;;;1999.90;999.90;;;;;;;13.15;47.00;96715.09;5074222;28;20127;-67
2023/12/31 10:51:55;;;;;;;;;;;;;;;13.12;47.38;96713.47;5074366;28;20090;-66
2023/12/31 10:54:32;;;;;;;1999.90;999.90;;;;;;;13.13;47.10;96711.72;5073821;28;20007;-65
2023/12/31 10:57:03;;;;;;;1999.90;999.90;;;;;;;13.09;47.64;96705.75;5073996;28;20136;-66
2023/12/31 10:59:36;;;;;;;1999.90;999.90;;;;;;;13.24;47.55;96701.56;5073932;28;20048;-67
2023/12/31 11:02:05;;;;;;;1999.90;999.90;;;;;;;13.26;47.29;96701.50;5073714;28;20048;-67
2023/12/31 11:04:33;;;;;;;1999.90;999.90;;;;;;;13.26;47.14;96697.09;5073757;28;20051;-66